sensor_id;sensor_type;location;lat;lon;timestamp;temperature;humidity
9219;DHT22;4644;48.858;9.184;2022-12-29T00:00:31;8.80;99.90
9219;DHT22;4644;48.858;9.184;2022-12-29T00:03:02;8.80;99.90
9219;DHT22;4644;48.858;9.184;2022-12-29T00:05:35;8.90;99.90
9219;DHT22;4644;48.858;9.184;2022-12-29T00:08:03;8.90;99.90
9219;DHT22;4644;48.858;9.184;2022-12-29T00:10:39;8.80;99.90
9219;DHT22;4644;48.858;9.184;2022-12-29T00:13:09;8.90;99.90
9219;DHT22;4644;48.858;9.184;2022-12-29T00:16:01;8.90;99.90
9219;DHT22;4644;48.858;9.184;2022-12-29T00:18:33;8.90;99.90
9219;DHT22;4644;48.858;9.184;2022-12-29T00:24:28;8.90;99.90
9219;DHT22;4644;48.858;9.184;2022-12-29T00:27:13;8.90;99.90
9219;DHT22;4644;48.858;9.184;2022-12-29T00:29:58;8.90;99.90
9219;DHT22;4644;48.858;9.184;2022-12-29T00:32:48;9.00;99.90
9219;DHT22;4644;48.858;9.184;2022-12-29T00:35:38;9.00;99.90
9219;DHT22;4644;48.858;9.184;2022-12-29T00:38:08;9.00;99.90
9219;DHT22;4644;48.858;9.184;2022-12-29T00:40:53;9.10;99.90
9219;DHT22;4644;48.858;9.184;2022-12-29T00:43:37;9.10;99.90
9219;DHT22;4644;48.858;9.184;2022-12-29T00:46:22;9.20;99.90
9219;DHT22;4644;48.858;9.184;2022-12-29T00:48:54;9.20;99.90
9219;DHT22;4644;48.858;9.184;2022-12-29T00:51:43;9.20;99.90
9219;DHT22;4644;48.858;9.184;2022-12-29T00:54:11;9.20;99.90
9219;DHT22;4644;48.858;9.184;2022-12-29T00:56:38;9.20;99.90
9219;DHT22;4644;48.858;9.184;2022-12-29T00:59:17;9.20;99.90
9219;DHT22;4644;48.858;9.184;2022-12-29T01:01:48;9.10;99.90
9219;DHT22;4644;48.858;9.184;2022-12-29T01:04:22;9.10;99.90
9219;DHT22;4644;48.858;9.184;2022-12-29T01:07:08;9.10;99.90
9219;DHT22;4644;48.858;9.184;2022-12-29T01:09:40;9.20;99.90
9219;DHT22;4644;48.858;9.184;2022-12-29T01:12:28;9.10;99.90
9219;DHT22;4644;48.858;9.184;2022-12-29T01:15:14;9.10;99.90
9219;DHT22;4644;48.858;9.184;2022-12-29T01:17:47;9.10;99.90
9219;DHT22;4644;48.858;9.184;2022-12-29T01:20:17;9.10;99.90
9219;DHT22;4644;48.858;9.184;2022-12-29T01:22:48;9.10;99.90
9219;DHT22;4644;48.858;9.184;2022-12-29T01:25:18;9.10;99.90
9219;DHT22;4644;48.858;9.184;2022-12-29T01:28:02;9.10;99.90
9219;DHT22;4644;48.858;9.184;2022-12-29T01:30:43;9.10;99.90
9219;DHT22;4644;48.858;9.184;2022-12-29T01:33:22;9.10;99.90
9219;DHT22;4644;48.858;9.184;2022-12-29T01:35:53;9.20;99.90
9219;DHT22;4644;48.858;9.184;2022-12-29T01:38:26;9.20;99.90
9219;DHT22;4644;48.858;9.184;2022-12-29T01:41:10;9.30;99.90
9219;DHT22;4644;48.858;9.184;2022-12-29T01:43:54;9.20;99.90
9219;DHT22;4644;48.858;9.184;2022-12-29T01:46:28;9.30;99.90
9219;DHT22;4644;48.858;9.184;2022-12-29T01:49:10;9.30;99.90
9219;DHT22;4644;48.858;9.184;2022-12-29T01:51:43;9.40;99.90
9219;DHT22;4644;48.858;9.184;2022-12-29T01:54:20;9.40;99.90
9219;DHT22;4644;48.858;9.184;2022-12-29T01:56:56;9.40;99.90
9219;DHT22;4644;48.858;9.184;2022-12-29T01:59:30;9.40;99.90
9219;DHT22;4644;48.858;9.184;2022-12-29T02:02:00;9.50;99.90
9219;DHT22;4644;48.858;9.184;2022-12-29T02:04:30;9.50;99.90
9219;DHT22;4644;48.858;9.184;2022-12-29T02:07:02;9.50;99.90
9219;DHT22;4644;48.858;9.184;2022-12-29T02:09:32;9.50;99.90
9219;DHT22;4644;48.858;9.184;2022-12-29T02:12:00;9.50;99.90
9219;DHT22;4644;48.858;9.184;2022-12-29T02:14:27;9.60;99.90
9219;DHT22;4644;48.858;9.184;2022-12-29T02:17:02;9.60;99.90
9219;DHT22;4644;48.858;9.184;2022-12-29T02:20:15;9.60;99.90
9219;DHT22;4644;48.858;9.184;2022-12-29T02:22:58;9.60;99.90
9219;DHT22;4644;48.858;9.184;2022-12-29T02:26:03;9.60;99.90
9219;DHT22;4644;48.858;9.184;2022-12-29T02:28:50;9.60;99.90
9219;DHT22;4644;48.858;9.184;2022-12-29T02:31:24;9.60;99.90
9219;DHT22;4644;48.858;9.184;2022-12-29T02:34:01;9.60;99.90
9219;DHT22;4644;48.858;9.184;2022-12-29T02:36:39;9.60;99.90
9219;DHT22;4644;48.858;9.184;2022-12-29T02:39:15;9.60;99.90
9219;DHT22;4644;48.858;9.184;2022-12-29T02:41:54;9.60;99.90
9219;DHT22;4644;48.858;9.184;2022-12-29T02:44:27;9.60;99.90
9219;DHT22;4644;48.858;9.184;2022-12-29T02:47:08;9.60;99.90
9219;DHT22;4644;48.858;9.184;2022-12-29T02:49:42;9.50;99.90
9219;DHT22;4644;48.858;9.184;2022-12-29T02:52:17;9.50;99.90
9219;DHT22;4644;48.858;9.184;2022-12-29T02:54:45;9.40;99.90
9219;DHT22;4644;48.858;9.184;2022-12-29T02:57:27;9.40;99.90
9219;DHT22;4644;48.858;9.184;2022-12-29T02:59:58;9.40;99.90
9219;DHT22;4644;48.858;9.184;2022-12-29T03:02:39;9.40;99.90
9219;DHT22;4644;48.858;9.184;2022-12-29T03:05:19;9.40;99.90
9219;DHT22;4644;48.858;9.184;2022-12-29T03:07:55;9.40;99.90
9219;DHT22;4644;48.858;9.184;2022-12-29T03:10:35;9.40;99.90
9219;DHT22;4644;48.858;9.184;2022-12-29T03:13:11;9.40;99.90
9219;DHT22;4644;48.858;9.184;2022-12-29T03:16:03;9.40;99.90
9219;DHT22;4644;48.858;9.184;2022-12-29T03:18:56;9.40;99.90
9219;DHT22;4644;48.858;9.184;2022-12-29T03:21:31;9.30;99.90
9219;DHT22;4644;48.858;9.184;2022-12-29T03:24:18;9.40;99.90
9219;DHT22;4644;48.858;9.184;2022-12-29T03:26:47;9.40;99.90
9219;DHT22;4644;48.858;9.184;2022-12-29T03:29:15;9.40;99.90
9219;DHT22;4644;48.858;9.184;2022-12-29T03:31:43;9.40;99.90
9219;DHT22;4644;48.858;9.184;2022-12-29T03:34:13;9.40;99.90
9219;DHT22;4644;48.858;9.184;2022-12-29T03:36:47;9.50;99.90
9219;DHT22;4644;48.858;9.184;2022-12-29T03:39:17;9.50;99.90
9219;DHT22;4644;48.858;9.184;2022-12-29T03:41:50;9.40;99.90
9219;DHT22;4644;48.858;9.184;2022-12-29T03:44:31;9.50;99.90
9219;DHT22;4644;48.858;9.184;2022-12-29T03:46:58;9.50;99.90
9219;DHT22;4644;48.858;9.184;2022-12-29T03:49:27;9.60;99.90
9219;DHT22;4644;48.858;9.184;2022-12-29T03:51:54;9.60;99.90
9219;DHT22;4644;48.858;9.184;2022-12-29T03:54:21;9.60;99.90
9219;DHT22;4644;48.858;9.184;2022-12-29T03:56:48;9.70;99.90
9219;DHT22;4644;48.858;9.184;2022-12-29T03:59:16;9.70;99.90
9219;DHT22;4644;48.858;9.184;2022-12-29T04:01:43;9.70;99.90
9219;DHT22;4644;48.858;9.184;2022-12-29T04:04:11;9.70;99.90
9219;DHT22;4644;48.858;9.184;2022-12-29T04:06:43;9.60;99.90
9219;DHT22;4644;48.858;9.184;2022-12-29T04:09:10;9.60;99.90
9219;DHT22;4644;48.858;9.184;2022-12-29T04:11:37;9.50;99.90
9219;DHT22;4644;48.858;9.184;2022-12-29T04:14:04;9.40;99.90
9219;DHT22;4644;48.858;9.184;2022-12-29T04:16:32;9.40;99.90
9219;DHT22;4644;48.858;9.184;2022-12-29T04:19:02;9.30;99.90
9219;DHT22;4644;48.858;9.184;2022-12-29T04:21:33;9.30;99.90
9219;DHT22;4644;48.858;9.184;2022-12-29T04:24:01;9.40;99.90
9219;DHT22;4644;48.858;9.184;2022-12-29T04:26:31;9.40;99.90
9219;DHT22;4644;48.858;9.184;2022-12-29T04:28:59;9.40;99.90
9219;DHT22;4644;48.858;9.184;2022-12-29T04:31:26;9.50;99.90
9219;DHT22;4644;48.858;9.184;2022-12-29T04:33:56;9.60;99.90
9219;DHT22;4644;48.858;9.184;2022-12-29T04:36:23;9.70;99.90
9219;DHT22;4644;48.858;9.184;2022-12-29T04:38:50;9.80;99.90
9219;DHT22;4644;48.858;9.184;2022-12-29T04:41:19;9.90;99.90
9219;DHT22;4644;48.858;9.184;2022-12-29T04:43:46;9.90;99.90
9219;DHT22;4644;48.858;9.184;2022-12-29T04:46:16;10.00;99.90
9219;DHT22;4644;48.858;9.184;2022-12-29T04:48:43;10.00;99.90
9219;DHT22;4644;48.858;9.184;2022-12-29T04:51:11;10.00;99.90
9219;DHT22;4644;48.858;9.184;2022-12-29T04:53:38;10.10;99.90
9219;DHT22;4644;48.858;9.184;2022-12-29T04:56:06;10.10;99.90
9219;DHT22;4644;48.858;9.184;2022-12-29T04:58:36;10.10;99.90
9219;DHT22;4644;48.858;9.184;2022-12-29T05:01:05;10.20;99.90
9219;DHT22;4644;48.858;9.184;2022-12-29T05:03:33;10.20;99.90
9219;DHT22;4644;48.858;9.184;2022-12-29T05:06:00;10.20;99.90
9219;DHT22;4644;48.858;9.184;2022-12-29T05:08:28;10.30;99.90
9219;DHT22;4644;48.858;9.184;2022-12-29T05:10:55;10.30;99.90
9219;DHT22;4644;48.858;9.184;2022-12-29T05:13:22;10.40;99.90
9219;DHT22;4644;48.858;9.184;2022-12-29T05:15:53;10.40;99.90
9219;DHT22;4644;48.858;9.184;2022-12-29T05:18:20;10.40;99.90
9219;DHT22;4644;48.858;9.184;2022-12-29T05:20:48;10.50;99.90
9219;DHT22;4644;48.858;9.184;2022-12-29T05:23:15;10.50;99.90
9219;DHT22;4644;48.858;9.184;2022-12-29T05:25:43;10.50;99.90
9219;DHT22;4644;48.858;9.184;2022-12-29T05:28:11;10.50;99.90
9219;DHT22;4644;48.858;9.184;2022-12-29T05:30:39;10.60;99.90
9219;DHT22;4644;48.858;9.184;2022-12-29T05:33:07;10.70;99.90
9219;DHT22;4644;48.858;9.184;2022-12-29T05:35:37;10.70;99.90
9219;DHT22;4644;48.858;9.184;2022-12-29T05:38:04;10.70;99.90
9219;DHT22;4644;48.858;9.184;2022-12-29T05:40:31;10.70;99.90
9219;DHT22;4644;48.858;9.184;2022-12-29T05:42:58;10.70;99.90
9219;DHT22;4644;48.858;9.184;2022-12-29T05:45:28;10.60;99.90
9219;DHT22;4644;48.858;9.184;2022-12-29T05:47:55;10.70;99.90
9219;DHT22;4644;48.858;9.184;2022-12-29T05:50:24;10.80;99.90
9219;DHT22;4644;48.858;9.184;2022-12-29T05:52:54;10.90;99.90
9219;DHT22;4644;48.858;9.184;2022-12-29T05:55:24;10.90;99.90
9219;DHT22;4644;48.858;9.184;2022-12-29T05:57:54;10.90;99.90
9219;DHT22;4644;48.858;9.184;2022-12-29T06:00:23;10.90;99.90
9219;DHT22;4644;48.858;9.184;2022-12-29T06:02:52;11.00;99.90
9219;DHT22;4644;48.858;9.184;2022-12-29T06:05:19;11.00;99.90
9219;DHT22;4644;48.858;9.184;2022-12-29T06:07:50;11.00;99.90
9219;DHT22;4644;48.858;9.184;2022-12-29T06:10:26;11.10;99.90
9219;DHT22;4644;48.858;9.184;2022-12-29T06:12:53;11.00;99.90
9219;DHT22;4644;48.858;9.184;2022-12-29T06:15:21;11.00;99.90
9219;DHT22;4644;48.858;9.184;2022-12-29T06:17:48;11.00;99.90
9219;DHT22;4644;48.858;9.184;2022-12-29T06:20:18;10.90;99.90
9219;DHT22;4644;48.858;9.184;2022-12-29T06:22:55;10.90;99.90
9219;DHT22;4644;48.858;9.184;2022-12-29T06:25:22;10.90;99.90
9219;DHT22;4644;48.858;9.184;2022-12-29T06:27:52;10.90;99.90
9219;DHT22;4644;48.858;9.184;2022-12-29T06:30:21;10.90;99.90
9219;DHT22;4644;48.858;9.184;2022-12-29T06:32:49;10.90;99.90
9219;DHT22;4644;48.858;9.184;2022-12-29T06:35:17;11.00;99.90
9219;DHT22;4644;48.858;9.184;2022-12-29T06:37:44;10.90;99.90
9219;DHT22;4644;48.858;9.184;2022-12-29T06:40:13;10.90;99.90
9219;DHT22;4644;48.858;9.184;2022-12-29T06:42:43;10.90;99.90
9219;DHT22;4644;48.858;9.184;2022-12-29T06:45:10;10.90;99.90
9219;DHT22;4644;48.858;9.184;2022-12-29T06:47:38;10.90;99.90
9219;DHT22;4644;48.858;9.184;2022-12-29T06:50:06;11.00;99.90
9219;DHT22;4644;48.858;9.184;2022-12-29T06:52:33;11.10;99.90
9219;DHT22;4644;48.858;9.184;2022-12-29T06:55:00;11.10;99.90
9219;DHT22;4644;48.858;9.184;2022-12-29T06:57:29;11.10;99.90
9219;DHT22;4644;48.858;9.184;2022-12-29T06:59:59;11.00;99.90
9219;DHT22;4644;48.858;9.184;2022-12-29T07:02:28;11.00;99.90
9219;DHT22;4644;48.858;9.184;2022-12-29T07:04:55;10.90;99.90
9219;DHT22;4644;48.858;9.184;2022-12-29T07:07:22;10.90;99.90
9219;DHT22;4644;48.858;9.184;2022-12-29T07:09:50;10.90;99.90
9219;DHT22;4644;48.858;9.184;2022-12-29T07:12:23;10.80;99.90
9219;DHT22;4644;48.858;9.184;2022-12-29T07:14:51;10.80;99.90
9219;DHT22;4644;48.858;9.184;2022-12-29T07:17:19;10.70;99.90
9219;DHT22;4644;48.858;9.184;2022-12-29T07:19:47;10.60;99.90
9219;DHT22;4644;48.858;9.184;2022-12-29T07:22:16;10.60;99.90
9219;DHT22;4644;48.858;9.184;2022-12-29T07:24:44;10.50;99.90
9219;DHT22;4644;48.858;9.184;2022-12-29T07:27:15;10.50;99.90
9219;DHT22;4644;48.858;9.184;2022-12-29T07:29:42;10.40;99.90
9219;DHT22;4644;48.858;9.184;2022-12-29T07:32:16;10.30;99.90
9219;DHT22;4644;48.858;9.184;2022-12-29T07:34:43;10.20;99.90
9219;DHT22;4644;48.858;9.184;2022-12-29T07:37:14;10.30;99.90
9219;DHT22;4644;48.858;9.184;2022-12-29T07:39:41;10.20;99.90
9219;DHT22;4644;48.858;9.184;2022-12-29T07:42:09;10.20;99.90
9219;DHT22;4644;48.858;9.184;2022-12-29T07:44:37;10.20;99.90
9219;DHT22;4644;48.858;9.184;2022-12-29T07:47:05;10.20;99.90
9219;DHT22;4644;48.858;9.184;2022-12-29T07:49:34;10.20;99.90
9219;DHT22;4644;48.858;9.184;2022-12-29T07:52:01;10.10;99.90
9219;DHT22;4644;48.858;9.184;2022-12-29T07:54:29;10.10;99.90
9219;DHT22;4644;48.858;9.184;2022-12-29T07:56:56;10.10;99.90
9219;DHT22;4644;48.858;9.184;2022-12-29T07:59:27;10.10;99.90
9219;DHT22;4644;48.858;9.184;2022-12-29T08:01:54;10.10;99.90
9219;DHT22;4644;48.858;9.184;2022-12-29T08:04:21;10.10;99.90
9219;DHT22;4644;48.858;9.184;2022-12-29T08:06:50;10.10;99.90
9219;DHT22;4644;48.858;9.184;2022-12-29T08:09:18;10.20;99.90
9219;DHT22;4644;48.858;9.184;2022-12-29T08:11:46;10.20;99.90
9219;DHT22;4644;48.858;9.184;2022-12-29T08:14:13;10.30;99.90
9219;DHT22;4644;48.858;9.184;2022-12-29T08:16:40;10.20;99.90
9219;DHT22;4644;48.858;9.184;2022-12-29T08:19:09;10.30;99.90
9219;DHT22;4644;48.858;9.184;2022-12-29T08:21:36;10.30;99.90
9219;DHT22;4644;48.858;9.184;2022-12-29T08:24:06;10.30;99.90
9219;DHT22;4644;48.858;9.184;2022-12-29T08:26:35;10.40;99.90
9219;DHT22;4644;48.858;9.184;2022-12-29T08:29:02;10.40;99.90
9219;DHT22;4644;48.858;9.184;2022-12-29T08:31:29;10.40;99.90
9219;DHT22;4644;48.858;9.184;2022-12-29T08:33:59;10.40;99.90
9219;DHT22;4644;48.858;9.184;2022-12-29T08:36:28;10.50;99.90
9219;DHT22;4644;48.858;9.184;2022-12-29T08:38:56;10.50;99.90
9219;DHT22;4644;48.858;9.184;2022-12-29T08:41:25;10.50;99.90
9219;DHT22;4644;48.858;9.184;2022-12-29T08:43:52;10.60;99.90
9219;DHT22;4644;48.858;9.184;2022-12-29T08:46:19;10.60;99.90
9219;DHT22;4644;48.858;9.184;2022-12-29T08:48:47;10.60;99.90
9219;DHT22;4644;48.858;9.184;2022-12-29T08:51:14;10.60;99.90
9219;DHT22;4644;48.858;9.184;2022-12-29T08:53:42;10.60;99.90
9219;DHT22;4644;48.858;9.184;2022-12-29T08:56:11;10.60;99.90
9219;DHT22;4644;48.858;9.184;2022-12-29T08:58:42;10.60;99.90
9219;DHT22;4644;48.858;9.184;2022-12-29T09:01:09;10.60;99.90
9219;DHT22;4644;48.858;9.184;2022-12-29T09:03:38;10.60;99.90
9219;DHT22;4644;48.858;9.184;2022-12-29T09:06:07;10.60;99.90
9219;DHT22;4644;48.858;9.184;2022-12-29T09:08:35;10.70;99.90
9219;DHT22;4644;48.858;9.184;2022-12-29T09:11:07;10.70;99.90
9219;DHT22;4644;48.858;9.184;2022-12-29T09:13:34;10.80;99.90
9219;DHT22;4644;48.858;9.184;2022-12-29T09:16:02;10.80;99.90
9219;DHT22;4644;48.858;9.184;2022-12-29T09:18:30;10.80;99.90
9219;DHT22;4644;48.858;9.184;2022-12-29T09:20:57;10.80;99.90
9219;DHT22;4644;48.858;9.184;2022-12-29T09:23:25;10.90;99.90
9219;DHT22;4644;48.858;9.184;2022-12-29T09:25:52;10.90;99.90
9219;DHT22;4644;48.858;9.184;2022-12-29T09:28:19;11.00;99.90
9219;DHT22;4644;48.858;9.184;2022-12-29T09:30:46;11.00;99.90
9219;DHT22;4644;48.858;9.184;2022-12-29T09:33:15;11.10;99.90
9219;DHT22;4644;48.858;9.184;2022-12-29T09:35:42;11.20;99.90
9219;DHT22;4644;48.858;9.184;2022-12-29T09:38:10;11.20;99.90
9219;DHT22;4644;48.858;9.184;2022-12-29T09:40:38;11.20;99.90
9219;DHT22;4644;48.858;9.184;2022-12-29T09:43:18;11.20;99.90
9219;DHT22;4644;48.858;9.184;2022-12-29T09:45:49;11.30;99.90
9219;DHT22;4644;48.858;9.184;2022-12-29T09:48:25;11.40;99.90
9219;DHT22;4644;48.858;9.184;2022-12-29T09:51:03;11.50;99.90
9219;DHT22;4644;48.858;9.184;2022-12-29T09:53:38;11.50;99.90
9219;DHT22;4644;48.858;9.184;2022-12-29T09:56:13;11.60;99.90
9219;DHT22;4644;48.858;9.184;2022-12-29T09:58:50;11.60;99.90
9219;DHT22;4644;48.858;9.184;2022-12-29T10:01:28;11.60;99.90
9219;DHT22;4644;48.858;9.184;2022-12-29T10:03:59;11.70;99.90
9219;DHT22;4644;48.858;9.184;2022-12-29T10:06:33;11.70;99.90
9219;DHT22;4644;48.858;9.184;2022-12-29T10:09:10;11.80;99.90
9219;DHT22;4644;48.858;9.184;2022-12-29T10:11:53;11.90;99.90
9219;DHT22;4644;48.858;9.184;2022-12-29T10:14:37;12.00;99.90
9219;DHT22;4644;48.858;9.184;2022-12-29T10:17:20;12.20;99.90
9219;DHT22;4644;48.858;9.184;2022-12-29T10:20:18;12.40;99.90
9219;DHT22;4644;48.858;9.184;2022-12-29T10:23:11;12.60;99.90
9219;DHT22;4644;48.858;9.184;2022-12-29T10:25:44;12.60;99.90
9219;DHT22;4644;48.858;9.184;2022-12-29T10:28:21;12.70;99.90
9219;DHT22;4644;48.858;9.184;2022-12-29T10:31:11;12.80;99.90
9219;DHT22;4644;48.858;9.184;2022-12-29T10:33:55;12.90;99.90
9219;DHT22;4644;48.858;9.184;2022-12-29T10:36:30;12.90;99.90
9219;DHT22;4644;48.858;9.184;2022-12-29T10:39:05;12.90;99.90
9219;DHT22;4644;48.858;9.184;2022-12-29T10:41:43;12.80;99.90
9219;DHT22;4644;48.858;9.184;2022-12-29T10:44:15;12.80;99.90
9219;DHT22;4644;48.858;9.184;2022-12-29T10:46:48;12.80;99.90
9219;DHT22;4644;48.858;9.184;2022-12-29T10:49:20;12.80;99.90
9219;DHT22;4644;48.858;9.184;2022-12-29T10:51:52;12.80;99.90
9219;DHT22;4644;48.858;9.184;2022-12-29T10:54:25;12.80;99.90
9219;DHT22;4644;48.858;9.184;2022-12-29T10:56:59;12.90;99.90
9219;DHT22;4644;48.858;9.184;2022-12-29T10:59:30;12.90;99.90
9219;DHT22;4644;48.858;9.184;2022-12-29T11:02:05;12.90;99.90
9219;DHT22;4644;48.858;9.184;2022-12-29T11:04:51;12.90;99.90
9219;DHT22;4644;48.858;9.184;2022-12-29T11:07:24;13.00;99.90
9219;DHT22;4644;48.858;9.184;2022-12-29T11:09:53;13.10;99.90
9219;DHT22;4644;48.858;9.184;2022-12-29T11:12:24;13.00;99.90
9219;DHT22;4644;48.858;9.184;2022-12-29T11:15:12;13.10;99.90
9219;DHT22;4644;48.858;9.184;2022-12-29T11:17:45;13.10;99.90
9219;DHT22;4644;48.858;9.184;2022-12-29T11:20:34;13.20;99.90
9219;DHT22;4644;48.858;9.184;2022-12-29T11:23:22;13.10;99.90
9219;DHT22;4644;48.858;9.184;2022-12-29T11:26:07;13.20;99.90
9219;DHT22;4644;48.858;9.184;2022-12-29T11:28:39;13.30;99.90
9219;DHT22;4644;48.858;9.184;2022-12-29T11:31:15;13.30;99.90
9219;DHT22;4644;48.858;9.184;2022-12-29T11:33:43;13.20;99.90
9219;DHT22;4644;48.858;9.184;2022-12-29T11:36:14;13.30;99.90
9219;DHT22;4644;48.858;9.184;2022-12-29T11:38:48;13.20;99.90
9219;DHT22;4644;48.858;9.184;2022-12-29T11:41:23;13.20;99.90
9219;DHT22;4644;48.858;9.184;2022-12-29T11:43:52;13.20;99.90
9219;DHT22;4644;48.858;9.184;2022-12-29T11:46:29;13.10;99.90
9219;DHT22;4644;48.858;9.184;2022-12-29T11:48:58;13.10;99.90
9219;DHT22;4644;48.858;9.184;2022-12-29T11:51:29;13.10;99.90
9219;DHT22;4644;48.858;9.184;2022-12-29T11:54:03;13.10;99.90
9219;DHT22;4644;48.858;9.184;2022-12-29T11:56:35;13.00;99.90
9219;DHT22;4644;48.858;9.184;2022-12-29T11:59:25;12.90;99.90
9219;DHT22;4644;48.858;9.184;2022-12-29T12:02:35;12.70;99.90
9219;DHT22;4644;48.858;9.184;2022-12-29T12:05:10;12.60;99.90
9219;DHT22;4644;48.858;9.184;2022-12-29T12:07:42;12.60;99.90
9219;DHT22;4644;48.858;9.184;2022-12-29T12:10:23;12.60;99.90
9219;DHT22;4644;48.858;9.184;2022-12-29T12:13:02;12.60;99.90
9219;DHT22;4644;48.858;9.184;2022-12-29T12:15:35;12.60;99.90
9219;DHT22;4644;48.858;9.184;2022-12-29T12:18:09;12.50;99.90
9219;DHT22;4644;48.858;9.184;2022-12-29T12:20:44;12.50;99.90
9219;DHT22;4644;48.858;9.184;2022-12-29T12:23:32;12.50;99.90
9219;DHT22;4644;48.858;9.184;2022-12-29T12:26:12;12.50;99.90
9219;DHT22;4644;48.858;9.184;2022-12-29T12:28:51;12.50;99.90
9219;DHT22;4644;48.858;9.184;2022-12-29T12:31:38;12.50;99.90
9219;DHT22;4644;48.858;9.184;2022-12-29T12:34:17;12.40;99.90
9219;DHT22;4644;48.858;9.184;2022-12-29T12:37:06;12.40;99.90
9219;DHT22;4644;48.858;9.184;2022-12-29T12:39:47;12.40;99.90
9219;DHT22;4644;48.858;9.184;2022-12-29T12:42:34;12.40;99.90
9219;DHT22;4644;48.858;9.184;2022-12-29T12:45:26;12.40;99.90
9219;DHT22;4644;48.858;9.184;2022-12-29T12:48:00;12.50;99.90
9219;DHT22;4644;48.858;9.184;2022-12-29T12:50:45;12.50;99.90
9219;DHT22;4644;48.858;9.184;2022-12-29T12:53:40;12.60;99.90
9219;DHT22;4644;48.858;9.184;2022-12-29T12:56:31;12.70;99.90
9219;DHT22;4644;48.858;9.184;2022-12-29T12:59:09;12.70;99.90
9219;DHT22;4644;48.858;9.184;2022-12-29T13:01:49;12.70;99.90
9219;DHT22;4644;48.858;9.184;2022-12-29T13:04:40;12.60;99.90
9219;DHT22;4644;48.858;9.184;2022-12-29T13:07:24;12.70;99.90
9219;DHT22;4644;48.858;9.184;2022-12-29T13:10:12;12.80;99.90
9219;DHT22;4644;48.858;9.184;2022-12-29T13:12:49;12.90;99.90
9219;DHT22;4644;48.858;9.184;2022-12-29T13:15:40;12.80;99.90
9219;DHT22;4644;48.858;9.184;2022-12-29T13:18:20;12.80;99.90
9219;DHT22;4644;48.858;9.184;2022-12-29T13:20:54;12.80;99.90
9219;DHT22;4644;48.858;9.184;2022-12-29T13:23:30;12.70;99.90
9219;DHT22;4644;48.858;9.184;2022-12-29T13:26:04;12.70;99.90
9219;DHT22;4644;48.858;9.184;2022-12-29T13:28:38;12.70;99.90
9219;DHT22;4644;48.858;9.184;2022-12-29T13:31:18;12.60;99.90
9219;DHT22;4644;48.858;9.184;2022-12-29T13:33:53;12.60;99.90
9219;DHT22;4644;48.858;9.184;2022-12-29T13:36:29;12.60;99.90
9219;DHT22;4644;48.858;9.184;2022-12-29T13:39:02;12.60;99.90
9219;DHT22;4644;48.858;9.184;2022-12-29T13:41:34;12.50;99.90
9219;DHT22;4644;48.858;9.184;2022-12-29T13:44:04;12.50;99.90
9219;DHT22;4644;48.858;9.184;2022-12-29T13:46:38;12.50;99.90
9219;DHT22;4644;48.858;9.184;2022-12-29T13:49:10;12.50;99.90
9219;DHT22;4644;48.858;9.184;2022-12-29T13:51:42;12.40;99.90
9219;DHT22;4644;48.858;9.184;2022-12-29T13:54:22;12.40;99.90
9219;DHT22;4644;48.858;9.184;2022-12-29T13:56:56;12.40;99.90
9219;DHT22;4644;48.858;9.184;2022-12-29T13:59:36;12.40;99.90
9219;DHT22;4644;48.858;9.184;2022-12-29T14:02:16;12.40;99.90
9219;DHT22;4644;48.858;9.184;2022-12-29T14:04:56;12.40;99.90
9219;DHT22;4644;48.858;9.184;2022-12-29T14:07:25;12.40;99.90
9219;DHT22;4644;48.858;9.184;2022-12-29T14:09:54;12.40;99.90
9219;DHT22;4644;48.858;9.184;2022-12-29T14:12:39;12.50;99.90
9219;DHT22;4644;48.858;9.184;2022-12-29T14:15:23;12.40;99.90
9219;DHT22;4644;48.858;9.184;2022-12-29T14:18:10;12.40;99.90
9219;DHT22;4644;48.858;9.184;2022-12-29T14:20:39;12.30;99.90
9219;DHT22;4644;48.858;9.184;2022-12-29T14:23:24;12.30;99.90
9219;DHT22;4644;48.858;9.184;2022-12-29T14:28:37;12.30;99.90
9219;DHT22;4644;48.858;9.184;2022-12-29T14:31:05;12.30;99.90
9219;DHT22;4644;48.858;9.184;2022-12-29T14:33:34;12.20;99.90
9219;DHT22;4644;48.858;9.184;2022-12-29T14:36:19;12.20;99.90
9219;DHT22;4644;48.858;9.184;2022-12-29T14:38:48;12.20;99.90
9219;DHT22;4644;48.858;9.184;2022-12-29T14:41:24;12.30;99.90
9219;DHT22;4644;48.858;9.184;2022-12-29T14:44:12;12.30;99.90
9219;DHT22;4644;48.858;9.184;2022-12-29T14:46:45;12.20;99.90
9219;DHT22;4644;48.858;9.184;2022-12-29T14:49:18;12.30;99.90
9219;DHT22;4644;48.858;9.184;2022-12-29T14:51:46;12.20;99.90
9219;DHT22;4644;48.858;9.184;2022-12-29T14:57:39;12.10;99.90
9219;DHT22;4644;48.858;9.184;2022-12-29T15:00:18;12.10;99.90
9219;DHT22;4644;48.858;9.184;2022-12-29T15:02:48;12.00;99.90
9219;DHT22;4644;48.858;9.184;2022-12-29T15:05:32;12.00;99.90
9219;DHT22;4644;48.858;9.184;2022-12-29T15:08:04;12.00;99.90
9219;DHT22;4644;48.858;9.184;2022-12-29T15:10:37;12.00;99.90
9219;DHT22;4644;48.858;9.184;2022-12-29T15:13:15;12.00;99.90
9219;DHT22;4644;48.858;9.184;2022-12-29T15:15:43;12.00;99.90
9219;DHT22;4644;48.858;9.184;2022-12-29T15:18:22;12.00;99.90
9219;DHT22;4644;48.858;9.184;2022-12-29T15:20:55;11.90;99.90
9219;DHT22;4644;48.858;9.184;2022-12-29T15:23:23;11.80;99.90
9219;DHT22;4644;48.858;9.184;2022-12-29T15:25:54;11.80;99.90
9219;DHT22;4644;48.858;9.184;2022-12-29T15:28:22;11.70;99.90
9219;DHT22;4644;48.858;9.184;2022-12-29T15:30:54;11.70;99.90
9219;DHT22;4644;48.858;9.184;2022-12-29T15:33:24;11.70;99.90
9219;DHT22;4644;48.858;9.184;2022-12-29T15:36:03;11.70;99.90
9219;DHT22;4644;48.858;9.184;2022-12-29T15:38:30;11.70;99.90
9219;DHT22;4644;48.858;9.184;2022-12-29T15:41:00;11.70;99.90
9219;DHT22;4644;48.858;9.184;2022-12-29T15:43:44;11.30;99.90
9219;DHT22;4644;48.858;9.184;2022-12-29T15:46:16;10.90;99.90
9219;DHT22;4644;48.858;9.184;2022-12-29T15:48:43;10.40;99.90
9219;DHT22;4644;48.858;9.184;2022-12-29T15:51:18;10.10;99.90
9219;DHT22;4644;48.858;9.184;2022-12-29T15:53:47;9.80;99.90
9219;DHT22;4644;48.858;9.184;2022-12-29T15:56:15;9.60;99.90
9219;DHT22;4644;48.858;9.184;2022-12-29T15:58:43;9.40;99.90
9219;DHT22;4644;48.858;9.184;2022-12-29T16:01:18;9.20;99.90
9219;DHT22;4644;48.858;9.184;2022-12-29T16:03:46;9.10;99.90
9219;DHT22;4644;48.858;9.184;2022-12-29T16:06:29;9.10;99.90
9219;DHT22;4644;48.858;9.184;2022-12-29T16:08:57;9.00;99.90
9219;DHT22;4644;48.858;9.184;2022-12-29T16:11:27;8.90;99.90
9219;DHT22;4644;48.858;9.184;2022-12-29T16:13:58;8.90;99.90
9219;DHT22;4644;48.858;9.184;2022-12-29T16:16:28;8.90;99.90
9219;DHT22;4644;48.858;9.184;2022-12-29T16:18:57;9.00;99.90
9219;DHT22;4644;48.858;9.184;2022-12-29T16:21:27;8.90;99.90
9219;DHT22;4644;48.858;9.184;2022-12-29T16:23:57;8.90;99.90
9219;DHT22;4644;48.858;9.184;2022-12-29T16:26:26;8.90;99.90
9219;DHT22;4644;48.858;9.184;2022-12-29T16:28:56;8.90;99.90
9219;DHT22;4644;48.858;9.184;2022-12-29T16:31:25;8.80;99.90
9219;DHT22;4644;48.858;9.184;2022-12-29T16:34:12;8.80;99.90
9219;DHT22;4644;48.858;9.184;2022-12-29T16:36:53;8.80;99.90
9219;DHT22;4644;48.858;9.184;2022-12-29T16:39:35;8.80;99.90
9219;DHT22;4644;48.858;9.184;2022-12-29T16:42:34;8.80;99.90
9219;DHT22;4644;48.858;9.184;2022-12-29T16:51:02;8.70;99.90
9219;DHT22;4644;48.858;9.184;2022-12-29T16:53:39;8.70;99.90
9219;DHT22;4644;48.858;9.184;2022-12-29T16:56:13;8.70;99.90
9219;DHT22;4644;48.858;9.184;2022-12-29T16:58:46;8.80;99.90
9219;DHT22;4644;48.858;9.184;2022-12-29T17:01:14;8.70;99.90
9219;DHT22;4644;48.858;9.184;2022-12-29T17:03:48;8.70;99.90